Time;durP1;ratioP1;P1;durP2;ratioP2;P2;SDS_P1;SDS_P2;PMS_P1;PMS_P2;Temp;Humidity;BMP_temperature;BMP_pressure;BME280_temperature;BME280_humidity;BME280_pressure;Samples;Min_cycle;Max_cycle;Signal;HPM_P1;HPM_P2
2023/03/21 00:01:51;;;;;;;5.78;3.88;;;;;;;12.90;96.29;96548.75;5045353;28;20095;-50
2023/03/21 00:04:19;;;;;;;4.85;3.40;;;;;;;12.97;96.60;96539.19;5046692;28;20076;-51
2023/03/21 00:06:48;;;;;;;6.38;3.95;;;;;;;13.03;97.50;96544.66;5049063;28;20163;-48
2023/03/21 00:09:16;;;;;;;5.20;3.40;;;;;;;13.10;98.72;96542.22;5043537;28;20092;-47
2023/03/21 00:11:45;;;;;;;6.50;4.07;;;;;;;13.22;99.65;96526.91;5046902;28;20450;-50
2023/03/21 00:14:19;;;;;;;8.00;3.83;;;;;;;13.34;100.00;96517.69;5043854;28;20108;-51
2023/03/21 00:16:49;;;;;;;6.63;3.83;;;;;;;13.46;100.00;96521.72;5071607;28;20076;-51
2023/03/21 00:19:19;;;;;;;;;;;;;;;13.57;100.00;96517.94;5046805;28;20115;-53
2023/03/21 00:21:51;;;;;;;5.20;3.50;;;;;;;13.63;100.00;96505.88;5045785;28;19956;-49
2023/03/21 00:24:37;;;;;;;5.72;3.78;;;;;;;13.70;100.00;96513.00;5043344;28;20079;-52
2023/03/21 00:27:05;;;;;;;5.95;3.90;;;;;;;13.80;100.00;96512.88;5039920;28;20489;-50
2023/03/21 00:29:55;;;;;;;6.20;3.92;;;;;;;13.87;95.55;96507.75;5046767;28;20636;-51
2023/03/21 00:32:24;;;;;;;5.55;3.70;;;;;;;13.86;93.67;96506.06;5046272;28;20072;-49
2023/03/21 00:34:52;;;;;;;5.80;3.70;;;;;;;13.82;91.75;96500.25;5047707;28;20067;-47
2023/03/21 00:37:40;;;;;;;5.97;3.72;;;;;;;13.83;91.21;96499.25;5044706;28;20084;-49
2023/03/21 00:40:11;;;;;;;4.50;3.17;;;;;;;13.87;91.05;96507.75;5047951;28;20044;-51
2023/03/21 00:42:52;;;;;;;5.97;3.30;;;;;;;13.90;90.46;96502.94;5044579;28;20064;-54
2023/03/21 00:45:22;;;;;;;5.93;3.60;;;;;;;13.91;90.86;96503.75;5045671;28;20095;-47
2023/03/21 00:47:50;;;;;;;6.03;3.72;;;;;;;14.00;91.35;96502.75;5041333;28;20081;-45
2023/03/21 00:50:19;;;;;;;5.75;3.70;;;;;;;14.06;90.72;96503.94;5047666;28;20589;-52
2023/03/21 00:52:47;;;;;;;5.03;3.35;;;;;;;14.14;90.91;96498.63;5043751;28;20075;-52
2023/03/21 00:55:17;;;;;;;6.72;3.20;;;;;;;14.21;90.36;96492.50;5039000;28;20088;-53
2023/03/21 00:57:45;;;;;;;6.05;3.75;;;;;;;14.30;90.33;96495.97;5044070;28;20061;-50
2023/03/21 01:00:21;;;;;;;8.30;3.78;;;;;;;14.36;89.87;96481.22;5044882;28;20079;-47
2023/03/21 01:02:56;;;;;;;5.63;3.50;;;;;;;14.42;91.10;96480.56;5046235;28;20064;-48
2023/03/21 01:08:24;;;;;;;5.22;3.45;;;;;;;14.51;94.71;96473.44;5046403;28;20068;-49
2023/03/21 01:11:04;;;;;;;6.05;3.58;;;;;;;14.54;94.58;96475.75;5043406;28;20077;-48
2023/03/21 01:13:33;;;;;;;5.57;3.33;;;;;;;14.60;94.85;96473.25;5042671;28;20075;-51
2023/03/21 01:16:07;;;;;;;6.72;3.63;;;;;;;14.68;95.23;96477.69;5044413;28;20087;-48
2023/03/21 01:18:37;;;;;;;10.73;4.03;;;;;;;14.72;94.21;96471.03;5043823;28;20076;-58
2023/03/21 01:21:08;;;;;;;4.57;3.47;;;;;;;14.77;92.30;96463.41;5043082;28;20083;-48
2023/03/21 01:23:37;;;;;;;6.25;3.60;;;;;;;14.84;91.17;96467.03;5043951;28;20545;-52
2023/03/21 01:26:05;;;;;;;4.95;3.60;;;;;;;14.86;91.46;96465.03;5045972;28;20072;-46
2023/03/21 01:28:34;;;;;;;7.55;3.78;;;;;;;14.86;93.36;96467.69;5077193;28;20083;-47
2023/03/21 01:31:05;;;;;;;6.10;3.60;;;;;;;14.89;93.64;96467.34;5039278;28;20443;-54
2023/03/21 01:33:33;;;;;;;;;;;;;;;14.94;93.41;96465.00;5043348;28;20174;-45
2023/03/21 01:36:02;;;;;;;8.07;4.22;;;;;;;14.90;94.28;96463.72;5044739;28;20421;-48
2023/03/21 01:38:40;;;;;;;5.65;3.67;;;;;;;14.95;93.81;96464.00;5047186;28;20068;-52
2023/03/21 01:41:17;;;;;;;5.13;3.42;;;;;;;15.00;93.59;96452.88;5042776;28;20084;-49
2023/03/21 01:43:47;;;;;;;6.57;3.60;;;;;;;15.00;93.17;96457.34;5044034;28;20716;-52
2023/03/21 01:46:39;;;;;;;5.13;3.47;;;;;;;15.04;91.89;96451.53;5046981;28;20513;-53
2023/03/21 01:49:26;;;;;;;6.78;3.38;;;;;;;15.06;90.69;96448.69;5046897;28;20138;-47
2023/03/21 01:51:58;;;;;;;6.68;3.30;;;;;;;15.07;89.29;96464.47;5038257;28;20095;-55
2023/03/21 01:54:39;;;;;;;7.10;3.45;;;;;;;15.11;88.30;96459.66;5045287;28;20111;-48
2023/03/21 01:57:10;;;;;;;6.13;3.40;;;;;;;15.11;87.62;96457.81;5042251;28;20470;-52
2023/03/21 01:59:41;;;;;;;4.75;3.03;;;;;;;15.07;87.52;96455.66;5041486;28;20085;-55
2023/03/21 02:02:12;;;;;;;5.28;3.33;;;;;;;15.08;87.37;96452.03;5049853;28;20073;-50
2023/03/21 02:04:49;;;;;;;4.57;3.10;;;;;;;15.06;87.32;96446.88;5043264;28;20087;-52
2023/03/21 02:07:22;;;;;;;5.88;3.50;;;;;;;15.04;87.89;96437.44;5044201;28;20072;-48
2023/03/21 02:09:51;;;;;;;5.00;3.22;;;;;;;15.04;88.61;96437.44;5046012;28;20076;-48
2023/03/21 02:12:20;;;;;;;4.78;3.00;;;;;;;15.05;88.48;96445.22;5042120;28;20080;-50
2023/03/21 02:14:49;;;;;;;5.45;3.35;;;;;;;15.05;88.98;96445.22;5037243;28;20073;-57
2023/03/21 02:17:25;;;;;;;4.50;2.97;;;;;;;15.07;88.46;96445.03;5044684;28;20083;-46
2023/03/21 02:20:11;;;;;;;5.05;3.13;;;;;;;15.11;88.40;96441.06;5044810;28;20561;-55
2023/03/21 02:23:10;;;;;;;5.03;3.33;;;;;;;15.16;87.85;96441.34;5040784;28;20089;-52
2023/03/21 02:26:26;;;;;;;6.60;3.20;;;;;;;15.19;86.94;96444.47;5045728;28;20084;-47
2023/03/21 02:29:13;;;;;;;4.53;3.20;;;;;;;15.20;87.18;96448.78;5030649;28;20073;-47
2023/03/21 02:31:47;;;;;;;6.13;3.33;;;;;;;15.29;86.98;96452.25;5043308;28;20092;-48
2023/03/21 02:34:36;;;;;;;3.42;2.80;;;;;;;15.31;88.80;96439.63;5043191;28;20543;-56
2023/03/21 02:37:15;;;;;;;6.57;3.30;;;;;;;15.29;88.33;96436.31;5041166;28;20111;-49
2023/03/21 02:40:09;;;;;;;4.75;3.35;;;;;;;15.25;91.07;96437.66;5043942;28;20076;-50
2023/03/21 02:42:45;;;;;;;6.72;3.40;;;;;;;15.22;94.11;96432.69;5049821;28;20088;-52
2023/03/21 02:45:26;;;;;;;5.15;3.20;;;;;;;15.18;95.89;96434.88;5045505;28;20091;-48
2023/03/21 02:47:57;;;;;;;3.95;2.80;;;;;;;15.16;98.51;96446.66;5042302;28;20818;-48
2023/03/21 02:50:28;;;;;;;4.10;3.10;;;;;;;15.13;99.31;96442.50;5044130;28;20084;-46
2023/03/21 02:52:59;;;;;;;5.50;3.10;;;;;;;15.10;97.31;96442.84;5045457;28;20577;-53
2023/03/21 02:55:29;;;;;;;5.40;3.33;;;;;;;15.03;99.20;96444.56;5044510;28;20102;-47
2023/03/21 02:57:58;;;;;;;4.07;2.90;;;;;;;14.67;100.00;96450.34;5042573;28;20549;-47
2023/03/21 03:00:41;;;;;;;4.50;3.40;;;;;;;14.59;100.00;96445.06;5042650;28;20091;-49
2023/03/21 03:03:10;;;;;;;7.13;3.60;;;;;;;14.71;100.00;96443.69;5047543;28;20095;-48
2023/03/21 03:05:49;;;;;;;4.93;3.42;;;;;;;14.93;100.00;96444.78;5043232;28;20095;-47
2023/03/21 03:08:27;;;;;;;5.25;3.67;;;;;;;14.82;100.00;96439.00;5047710;28;20080;-52
2023/03/21 03:11:14;;;;;;;5.32;3.60;;;;;;;14.79;100.00;96440.16;5044659;28;20069;-48
2023/03/21 03:14:06;;;;;;;6.50;3.83;;;;;;;14.79;100.00;96439.34;5044505;28;20776;-44
2023/03/21 03:17:01;;;;;;;6.30;3.92;;;;;;;14.67;100.00;96431.75;5047726;28;20107;-50
2023/03/21 03:19:31;;;;;;;8.20;4.20;;;;;;;14.78;100.00;96432.38;5043461;28;20683;-49
2023/03/21 03:22:10;;;;;;;6.22;4.03;;;;;;;14.78;100.00;96435.88;5047183;28;20080;-50
2023/03/21 03:24:43;;;;;;;6.72;3.85;;;;;;;14.83;100.00;96438.00;5047320;28;20085;-48
2023/03/21 03:27:16;;;;;;;6.78;3.58;;;;;;;14.91;100.00;96428.19;5040651;28;20064;-50
2023/03/21 03:29:46;;;;;;;5.65;3.95;;;;;;;14.97;100.00;96434.66;5047555;28;20084;-45
2023/03/21 03:32:17;;;;;;;6.55;4.35;;;;;;;15.02;100.00;96426.97;5045499;28;20088;-47
2023/03/21 03:34:48;;;;;;;;;;;;;;;15.09;100.00;96427.09;5049520;28;20829;-47
2023/03/21 03:37:20;;;;;;;10.48;3.78;;;;;;;15.14;100.00;96422.09;5043530;28;19960;-53
2023/03/21 03:39:54;;;;;;;6.50;3.88;;;;;;;15.14;99.78;96419.44;5048226;28;20611;-49
2023/03/21 03:42:25;;;;;;;5.30;3.80;;;;;;;15.18;100.00;96426.91;5054166;28;20080;-53
2023/03/21 03:44:56;;;;;;;5.25;3.58;;;;;;;15.20;100.00;96427.53;5047866;28;20073;-45
2023/03/21 03:47:29;;;;;;;7.07;3.97;;;;;;;15.22;100.00;96419.41;5051664;28;20096;-45
2023/03/21 03:50:08;;;;;;;8.43;4.15;;;;;;;15.24;100.00;96424.53;5050904;28;20088;-45
2023/03/21 03:52:39;;;;;;;7.40;4.25;;;;;;;15.27;99.42;96421.53;5048252;28;20088;-49
2023/03/21 03:55:26;;;;;;;5.70;3.97;;;;;;;15.27;98.99;96421.53;5047665;28;20084;-51
2023/03/21 03:57:55;;;;;;;6.53;4.10;;;;;;;15.27;98.57;96421.53;5049861;28;20077;-50
2023/03/21 04:00:24;;;;;;;5.75;3.90;;;;;;;15.30;97.97;96424.66;5050065;28;20088;-50
2023/03/21 04:02:53;;;;;;;5.95;4.10;;;;;;;15.21;98.91;96420.41;5049660;28;20076;-47
2023/03/21 04:05:21;;;;;;;5.57;3.90;;;;;;;15.30;98.17;96422.00;5049805;28;20515;-52
2023/03/21 04:07:50;;;;;;;7.03;4.10;;;;;;;15.30;98.38;96416.69;5048950;28;20110;-49
2023/03/21 04:10:20;;;;;;;5.80;4.20;;;;;;;15.33;97.43;96412.88;5049664;28;20084;-49
2023/03/21 04:12:49;;;;;;;5.72;3.45;;;;;;;15.33;97.49;96416.34;5047884;28;20104;-51
2023/03/21 04:15:19;;;;;;;6.45;4.00;;;;;;;15.33;97.60;96411.03;5049503;28;20065;-49
2023/03/21 04:17:47;;;;;;;7.20;4.13;;;;;;;15.34;96.98;96412.69;5050106;28;20109;-46
2023/03/21 04:20:16;;;;;;;5.70;3.90;;;;;;;15.38;97.13;96419.31;5075549;28;20533;-50
2023/03/21 04:23:01;;;;;;;9.05;4.45;;;;;;;15.42;96.42;96419.78;5048290;28;20085;-50
2023/03/21 04:25:29;;;;;;;6.05;4.22;;;;;;;15.43;95.89;96422.25;5048641;28;20072;-51
2023/03/21 04:28:02;;;;;;;7.90;4.30;;;;;;;15.42;96.23;96423.28;5049081;28;20159;-47
2023/03/21 04:30:33;;;;;;;7.87;4.43;;;;;;;15.43;96.55;96418.78;5050047;28;20080;-53
2023/03/21 04:33:01;;;;;;;7.32;4.05;;;;;;;15.50;96.44;96427.72;5046523;28;20541;-51
2023/03/21 04:35:29;;;;;;;6.70;4.50;;;;;;;15.53;95.85;96415.91;5050165;28;20069;-48
2023/03/21 04:37:57;;;;;;;5.38;3.92;;;;;;;15.55;95.22;96414.69;5043681;28;20076;-55
2023/03/21 04:40:26;;;;;;;6.85;4.03;;;;;;;15.57;94.23;96411.88;5045029;28;20084;-51
2023/03/21 04:42:54;;;;;;;6.70;3.80;;;;;;;15.55;93.68;96411.22;5039433;28;20072;-49
2023/03/21 04:45:24;;;;;;;5.72;3.80;;;;;;;15.51;93.75;96415.25;5045943;28;20072;-48
2023/03/21 04:47:52;;;;;;;5.87;3.97;;;;;;;15.52;94.69;96414.22;5043162;28;20072;-51
2023/03/21 04:50:20;;;;;;;5.80;3.97;;;;;;;15.52;94.54;96414.22;5048768;28;20069;-49
2023/03/21 04:52:49;;;;;;;5.05;3.72;;;;;;;15.51;96.25;96417.91;5042536;28;20080;-49
2023/03/21 04:55:20;;;;;;;7.50;4.00;;;;;;;15.48;95.91;96410.28;5043236;28;20068;-46
2023/03/21 04:57:48;;;;;;;6.53;3.83;;;;;;;15.47;94.73;96411.28;5044817;28;20081;-48
2023/03/21 05:00:17;;;;;;;4.47;3.50;;;;;;;15.41;94.77;96416.28;5044854;28;20509;-50
2023/03/21 05:02:47;;;;;;;5.32;3.50;;;;;;;15.26;97.32;96410.09;5044270;28;20080;-46
2023/03/21 05:05:15;;;;;;;6.83;3.07;;;;;;;15.09;100.00;96408.53;5045164;28;20504;-52
2023/03/21 05:07:44;;;;;;;6.35;3.53;;;;;;;15.02;100.00;96418.19;5049287;28;20053;-49
2023/03/21 05:10:12;;;;;;;5.28;3.42;;;;;;;15.00;100.00;96409.53;5038168;28;20467;-46
2023/03/21 05:12:41;;;;;;;6.22;3.78;;;;;;;14.95;100.00;96415.38;5049295;28;20084;-49
2023/03/21 05:15:09;;;;;;;6.80;4.18;;;;;;;14.99;100.00;96414.03;5045144;28;20100;-48
2023/03/21 05:17:38;;;;;;;7.05;4.78;;;;;;;15.02;100.00;96415.53;5047794;28;20091;-48
2023/03/21 05:20:10;;;;;;;6.95;4.13;;;;;;;15.10;100.00;96407.50;5047594;28;20084;-48
2023/03/21 05:22:40;;;;;;;8.65;4.20;;;;;;;15.17;100.00;96414.63;5048097;28;20084;-52
2023/03/21 05:25:10;;;;;;;4.83;3.60;;;;;;;15.24;100.00;96414.72;5048338;28;20092;-47
2023/03/21 05:27:44;;;;;;;6.55;3.80;;;;;;;15.32;99.92;96414.69;5045197;28;20485;-48
2023/03/21 05:30:14;;;;;;;7.97;4.25;;;;;;;15.35;98.83;96416.19;5047369;28;20072;-50
2023/03/21 05:32:42;;;;;;;8.13;4.25;;;;;;;15.42;98.11;96414.47;5049736;28;20095;-46
2023/03/21 05:35:13;;;;;;;10.85;4.47;;;;;;;15.49;97.56;96419.91;5045081;28;20077;-50
2023/03/21 05:37:41;;;;;;;6.97;4.30;;;;;;;15.56;96.97;96419.03;5047070;28;20077;-47
2023/03/21 05:40:11;;;;;;;6.20;3.92;;;;;;;15.65;95.49;96417.94;5038909;28;20076;-50
2023/03/21 05:42:39;;;;;;;9.70;4.13;;;;;;;15.72;93.32;96414.63;5047480;28;20096;-47
2023/03/21 05:45:08;;;;;;;6.05;4.20;;;;;;;15.78;91.85;96420.06;5042794;28;20084;-51
2023/03/21 05:47:36;;;;;;;7.70;4.20;;;;;;;15.75;91.37;96419.59;5048932;28;20080;-55
2023/03/21 05:50:05;;;;;;;9.00;4.10;;;;;;;15.80;91.09;96417.25;5047752;28;20084;-49
2023/03/21 05:52:35;;;;;;;7.75;4.00;;;;;;;15.78;89.33;96422.72;5048511;28;20085;-50
2023/03/21 05:55:04;;;;;;;7.33;3.93;;;;;;;15.78;89.69;96419.22;5047580;28;20123;-48
2023/03/21 05:57:37;;;;;;;6.15;3.90;;;;;;;15.78;90.64;96422.72;5048491;28;20499;-52
2023/03/21 06:00:08;;;;;;;7.43;3.53;;;;;;;15.87;92.16;96426.16;5044262;28;20076;-47
2023/03/21 06:02:36;;;;;;;6.10;4.20;;;;;;;15.96;90.94;96424.25;5043815;28;20085;-48
2023/03/21 06:05:06;;;;;;;6.57;4.07;;;;;;;15.97;92.73;96424.06;5045746;28;20567;-50
2023/03/21 06:07:35;;;;;;;7.30;3.88;;;;;;;16.08;91.52;96431.63;5047732;28;20572;-48
2023/03/21 06:10:04;;;;;;;6.05;3.60;;;;;;;16.18;91.78;96427.88;5047707;28;20103;-48
2023/03/21 06:12:33;;;;;;;5.93;4.05;;;;;;;16.17;92.09;96435.03;5048292;28;20093;-48
2023/03/21 06:15:01;;;;;;;10.60;4.07;;;;;;;16.27;98.75;96432.94;5045839;28;20080;-46
2023/03/21 06:17:29;;;;;;;7.90;4.22;;;;;;;16.31;99.16;96434.25;5043845;28;20088;-52
2023/03/21 06:19:59;;;;;;;7.22;4.85;;;;;;;16.33;95.28;96437.53;5047468;28;20084;-49
2023/03/21 06:22:28;;;;;;;6.13;3.40;;;;;;;16.24;100.00;96438.66;5044209;28;20812;-49
2023/03/21 06:24:57;;;;;;;6.07;3.35;;;;;;;16.31;99.34;96442.22;5046932;28;20080;-50
2023/03/21 06:27:26;;;;;;;5.47;3.03;;;;;;;16.40;96.33;96432.31;5041432;28;20085;-50
2023/03/21 06:29:54;;;;;;;5.38;3.50;;;;;;;16.41;95.35;96446.44;5041396;28;20491;-53
2023/03/21 06:32:22;;;;;;;9.18;4.20;;;;;;;16.52;94.96;96444.19;5042707;28;20083;-51
2023/03/21 06:34:51;;;;;;;5.68;3.60;;;;;;;16.61;93.89;96444.91;5049050;28;20087;-52
2023/03/21 06:37:20;;;;;;;5.43;3.80;;;;;;;16.71;92.80;96445.47;5051594;28;20076;-48
2023/03/21 06:39:48;;;;;;;5.50;3.58;;;;;;;16.74;91.88;96441.63;5052144;28;20096;-53
2023/03/21 06:42:17;;;;;;;7.28;4.30;;;;;;;16.87;91.89;96446.34;5053390;28;20084;-47
2023/03/21 06:44:46;;;;;;;6.95;4.15;;;;;;;17.07;87.96;96445.59;5052091;28;20096;-48
2023/03/21 06:47:14;;;;;;;9.20;5.25;;;;;;;17.43;85.47;96441.28;5051353;28;20081;-49
2023/03/21 06:49:43;;;;;;;16.83;9.27;;;;;;;17.59;80.69;96440.25;5049142;28;20088;-49
2023/03/21 06:52:11;;;;;;;12.10;8.55;;;;;;;17.68;74.73;96439.09;5047054;28;20073;-47
2023/03/21 06:54:40;;;;;;;7.75;5.13;;;;;;;17.87;72.94;96438.50;5049790;28;20092;-46
2023/03/21 06:57:08;;;;;;;8.35;4.85;;;;;;;18.17;70.83;96438.34;5049499;28;20077;-51
2023/03/21 06:59:40;;;;;;;6.00;4.35;;;;;;;18.41;68.65;96432.59;5046022;28;20091;-48
2023/03/21 07:02:10;;;;;;;7.93;5.25;;;;;;;18.68;65.05;96430.09;5048598;28;20084;-49
2023/03/21 07:04:38;;;;;;;7.23;4.47;;;;;;;18.69;64.93;96434.44;5051289;28;20084;-49
2023/03/21 07:07:06;;;;;;;6.70;4.63;;;;;;;18.88;64.26;96431.06;5050615;28;20085;-54
2023/03/21 07:09:34;;;;;;;7.45;4.88;;;;;;;19.09;63.29;96437.34;5048595;28;20084;-50
2023/03/21 07:12:03;;;;;;;7.10;4.60;;;;;;;19.14;59.33;96433.06;5050615;28;20087;-51
2023/03/21 07:14:33;;;;;;;7.18;4.65;;;;;;;19.24;57.81;96434.53;5050924;28;20088;-45
2023/03/21 07:17:03;;;;;;;6.40;4.38;;;;;;;19.39;57.63;96432.53;5050771;28;20076;-50
2023/03/21 07:19:31;;;;;;;7.23;4.50;;;;;;;19.45;56.98;96427.22;5046976;28;20519;-48
2023/03/21 07:22:00;;;;;;;6.40;4.95;;;;;;;19.45;54.59;96429.88;5049642;28;20080;-52
2023/03/21 07:24:28;;;;;;;5.82;4.20;;;;;;;19.58;54.26;96434.44;5051365;28;20517;-47
2023/03/21 07:26:56;;;;;;;6.78;5.07;;;;;;;19.63;54.86;96432.00;5050389;28;20538;-55
2023/03/21 07:29:25;;;;;;;6.35;4.28;;;;;;;19.91;54.13;96433.72;5051000;28;20085;-50
2023/03/21 07:31:53;;;;;;;6.28;4.55;;;;;;;19.92;54.28;96438.03;5051130;28;20088;-51
2023/03/21 07:34:23;;;;;;;6.90;4.82;;;;;;;20.10;54.01;96424.88;5057436;28;20076;-47
2023/03/21 07:36:51;;;;;;;6.53;4.37;;;;;;;20.17;53.62;96432.91;5048464;28;20087;-50
2023/03/21 07:39:20;;;;;;;6.53;4.75;;;;;;;20.27;52.59;96433.34;5050391;28;20080;-51
2023/03/21 07:41:48;;;;;;;8.48;4.78;;;;;;;20.34;51.68;96431.47;5050256;28;20084;-49
2023/03/21 07:44:16;;;;;;;6.85;4.43;;;;;;;20.42;51.71;96437.66;5050172;28;20084;-54
2023/03/21 07:46:44;;;;;;;6.80;4.57;;;;;;;20.47;51.83;96441.34;5050193;28;20084;-46
2023/03/21 07:49:12;;;;;;;6.72;4.55;;;;;;;20.49;51.29;96438.47;5050309;28;20080;-48
2023/03/21 07:51:42;;;;;;;6.85;4.50;;;;;;;20.42;50.99;96437.66;5047969;28;20085;-48
2023/03/21 07:54:10;;;;;;;9.17;4.47;;;;;;;20.56;50.68;96442.81;5046228;28;20072;-48
2023/03/21 07:56:39;;;;;;;6.45;4.50;;;;;;;20.51;50.06;96439.94;5044362;28;20502;-47
2023/03/21 07:59:08;;;;;;;8.75;4.63;;;;;;;20.62;49.48;96435.81;5046179;28;20076;-50
2023/03/21 08:01:37;;;;;;;7.43;4.75;;;;;;;20.53;49.55;96435.19;5041297;28;20107;-50
2023/03/21 08:04:05;;;;;;;8.48;4.60;;;;;;;20.60;48.61;96433.31;5048079;28;20080;-47
2023/03/21 08:06:34;;;;;;;7.82;4.97;;;;;;;20.62;48.48;96435.81;5049636;28;20092;-50
2023/03/21 08:09:17;;;;;;;7.45;4.70;;;;;;;20.57;48.24;96432.91;5010821;28;20079;-49
2023/03/21 08:11:45;;;;;;;6.40;4.10;;;;;;;20.70;48.37;96430.22;5012118;28;20085;-54
2023/03/21 08:14:14;;;;;;;8.70;4.97;;;;;;;20.93;47.37;96431.63;5001999;28;20089;-47
2023/03/21 08:16:42;;;;;;;7.53;4.90;;;;;;;20.98;47.57;96426.44;5007590;28;20089;-46
2023/03/21 08:19:10;;;;;;;7.43;4.70;;;;;;;21.25;46.30;96425.31;5008701;28;20080;-47
2023/03/21 08:21:39;;;;;;;7.55;4.78;;;;;;;21.45;45.83;96425.28;5008041;28;20148;-48
2023/03/21 08:24:08;;;;;;;8.10;4.55;;;;;;;21.37;46.39;96433.56;5008909;28;20092;-51
2023/03/21 08:26:37;;;;;;;6.88;4.72;;;;;;;21.05;46.85;96441.47;5008086;28;20111;-48
2023/03/21 08:29:06;;;;;;;7.13;5.03;;;;;;;21.30;45.96;96430.88;5016357;28;20081;-48
2023/03/21 08:31:34;;;;;;;7.45;4.80;;;;;;;21.54;45.36;96426.69;5007772;28;20089;-51
2023/03/21 08:34:03;;;;;;;9.48;5.13;;;;;;;21.72;44.09;96430.50;5016063;28;20076;-50
2023/03/21 08:36:31;;;;;;;6.63;4.75;;;;;;;21.53;45.10;96419.63;5012179;28;20454;-46
2023/03/21 08:39:04;;;;;;;8.20;5.05;;;;;;;21.88;44.29;96427.28;5025835;28;20116;-53
2023/03/21 08:41:32;;;;;;;9.88;5.13;;;;;;;21.80;43.36;96412.25;5046082;28;20080;-55
2023/03/21 08:44:02;;;;;;;9.85;5.13;;;;;;;21.99;43.40;96421.25;5042055;28;20082;-49
2023/03/21 08:46:31;;;;;;;9.23;5.65;;;;;;;22.14;42.77;96412.84;5048338;28;20072;-53
2023/03/21 08:48:59;;;;;;;11.07;5.65;;;;;;;22.23;41.83;96419.63;5054236;28;20076;-48
2023/03/21 08:51:27;;;;;;;8.45;5.25;;;;;;;22.28;40.68;96421.66;5048406;28;20088;-54
2023/03/21 08:53:56;;;;;;;8.88;5.30;;;;;;;22.41;41.32;96418.88;5047334;28;20080;-48
2023/03/21 08:56:24;;;;;;;7.55;4.93;;;;;;;22.41;41.75;96418.88;5057971;28;20447;-52
2023/03/21 08:58:52;;;;;;;9.68;4.97;;;;;;;22.07;41.22;96417.47;5047429;28;20103;-51
2023/03/21 09:01:22;;;;;;;7.75;5.10;;;;;;;22.28;41.23;96414.41;5049129;28;20072;-53
2023/03/21 09:03:50;;;;;;;9.73;5.57;;;;;;;22.41;40.87;96418.88;5047683;28;20087;-48
2023/03/21 09:06:19;;;;;;;8.90;5.00;;;;;;;22.36;40.69;96415.19;5047981;28;20069;-53
2023/03/21 09:08:47;;;;;;;7.90;5.10;;;;;;;22.59;40.56;96417.25;5049461;28;20064;-48
2023/03/21 09:11:15;;;;;;;8.05;5.38;;;;;;;22.62;40.60;96414.13;5047711;28;20085;-52
2023/03/21 09:13:44;;;;;;;6.70;4.80;;;;;;;22.66;40.98;96412.63;5049477;28;20111;-49
2023/03/21 09:16:12;;;;;;;7.53;5.10;;;;;;;22.85;39.51;96405.41;5043199;28;20548;-52
2023/03/21 09:18:46;;;;;;;6.80;4.72;;;;;;;22.87;39.63;96404.13;5046326;28;20081;-48
2023/03/21 09:21:15;;;;;;;7.53;5.00;;;;;;;22.92;39.42;96403.50;5042503;28;20068;-52
2023/03/21 09:23:44;;;;;;;7.72;4.90;;;;;;;23.13;39.46;96404.94;5043835;28;20507;-52
2023/03/21 09:26:14;;;;;;;8.68;5.05;;;;;;;23.15;39.88;96403.63;5040044;28;20088;-50
2023/03/21 09:28:45;;;;;;;7.22;4.80;;;;;;;23.17;39.62;96398.06;5049192;28;20087;-52
2023/03/21 09:31:15;;;;;;;8.52;5.00;;;;;;;23.14;39.55;96399.31;5044714;28;20068;-51
2023/03/21 09:33:45;;;;;;;7.28;4.82;;;;;;;22.99;39.84;96401.56;5049125;28;20545;-46
2023/03/21 09:36:14;;;;;;;6.40;4.68;;;;;;;22.99;39.55;96398.88;5046339;28;20087;-51
2023/03/21 09:38:44;;;;;;;9.30;5.10;;;;;;;22.61;39.49;96404.41;5044854;28;20076;-46
2023/03/21 09:41:29;;;;;;;8.70;5.10;;;;;;;23.11;39.00;96398.94;5047329;28;20067;-52
2023/03/21 09:44:07;;;;;;;9.13;5.38;;;;;;;23.16;39.44;96391.03;5046306;28;20089;-48
2023/03/21 09:46:41;;;;;;;8.45;4.88;;;;;;;22.89;39.70;96387.78;5042111;28;20076;-51
2023/03/21 09:49:16;;;;;;;8.68;4.95;;;;;;;23.32;39.07;96386.88;5048142;28;20053;-47
2023/03/21 09:51:47;;;;;;;9.18;4.53;;;;;;;23.34;38.66;96388.31;5047383;28;20622;-47
2023/03/21 09:54:19;;;;;;;7.72;4.32;;;;;;;22.69;38.17;96394.19;5047097;28;20510;-48
2023/03/21 09:56:49;;;;;;;5.68;4.07;;;;;;;22.66;38.61;96389.25;5042986;28;20079;-48
2023/03/21 09:59:23;;;;;;;7.10;4.45;;;;;;;22.83;38.62;96384.13;5047309;28;20087;-55
2023/03/21 10:01:54;;;;;;;7.10;4.30;;;;;;;22.69;38.81;96390.69;5043954;28;20071;-49
2023/03/21 10:04:23;;;;;;;7.72;4.38;;;;;;;22.80;39.36;96389.94;5078677;28;20060;-47
2023/03/21 10:06:56;;;;;;;7.57;4.45;;;;;;;22.97;39.20;96379.44;5045839;28;20075;-51
2023/03/21 10:09:27;;;;;;;5.57;4.15;;;;;;;22.75;40.02;96384.44;5047183;28;20081;-48
2023/03/21 10:11:59;;;;;;;8.18;5.03;;;;;;;22.35;39.48;96384.81;5048508;28;20072;-46
2023/03/21 10:14:31;;;;;;;6.43;4.20;;;;;;;22.94;39.21;96379.91;5069989;28;20515;-50
2023/03/21 10:17:01;;;;;;;7.38;4.72;;;;;;;23.17;39.21;96381.91;5071303;28;20076;-47
2023/03/21 10:19:31;;;;;;;7.88;4.90;;;;;;;23.35;38.69;96372.97;5047262;28;20455;-47
2023/03/21 10:21:59;;;;;;;8.80;5.10;;;;;;;23.49;37.57;96371.75;5046071;28;20076;-50
2023/03/21 10:24:33;;;;;;;7.35;4.90;;;;;;;23.47;38.58;96373.88;5047874;28;20080;-47
2023/03/21 10:27:03;;;;;;;8.15;4.90;;;;;;;23.43;37.73;96364.56;5045634;28;20072;-46
2023/03/21 10:29:35;;;;;;;9.38;4.85;;;;;;;22.92;38.49;96366.69;5041111;28;20076;-47
2023/03/21 10:32:05;;;;;;;9.60;5.38;;;;;;;23.25;38.77;96362.75;5048100;28;20071;-48
2023/03/21 10:34:37;;;;;;;8.38;5.03;;;;;;;22.55;40.32;96365.00;5041255;28;20081;-52
2023/03/21 10:37:06;;;;;;;8.23;5.00;;;;;;;22.83;39.97;96353.72;5046468;28;20768;-47
2023/03/21 10:39:36;;;;;;;9.35;5.20;;;;;;;23.08;39.57;96357.16;5048013;28;20633;-46
2023/03/21 10:42:05;;;;;;;11.25;4.88;;;;;;;22.30;39.94;96365.00;5047722;28;20073;-49
2023/03/21 10:44:34;;;;;;;6.60;5.05;;;;;;;22.66;39.79;96356.19;5048164;28;20060;-51
2023/03/21 10:47:05;;;;;;;8.52;4.88;;;;;;;22.62;39.42;96355.81;5044938;28;20071;-46
2023/03/21 10:49:36;;;;;;;9.48;5.45;;;;;;;22.44;40.11;96353.94;5042598;28;20072;-50
2023/03/21 10:52:27;;;;;;;7.00;4.78;;;;;;;22.21;41.12;96357.25;5042663;28;20083;-46
2023/03/21 10:55:08;;;;;;;7.00;5.05;;;;;;;22.80;39.67;96351.50;5042098;28;20080;-45
2023/03/21 10:57:37;;;;;;;7.88;5.20;;;;;;;22.60;41.07;96349.81;5046830;28;20569;-49
2023/03/21 11:00:15;;;;;;;7.10;4.60;;;;;;;22.69;40.65;96348.50;5041513;28;20076;-45
2023/03/21 11:02:48;;;;;;;3.85;2.63;;;;;;;22.00;37.76;96355.75;5044972;28;20072;-48
2023/03/21 11:05:22;;;;;;;6.35;3.30;;;;;;;21.86;41.03;96348.00;5042966;28;20084;-45
2023/03/21 11:08:03;;;;;;;5.30;3.28;;;;;;;22.13;38.40;96346.75;5047340;28;20522;-47
2023/03/21 11:10:33;;;;;;;4.95;3.45;;;;;;;22.44;40.11;96348.56;5047867;28;20571;-47
2023/03/21 11:13:04;;;;;;;8.57;3.80;;;;;;;22.74;38.07;96340.56;5047236;28;20076;-52
2023/03/21 11:15:38;;;;;;;5.57;3.53;;;;;;;22.85;37.49;96338.19;5042290;28;20081;-48
2023/03/21 11:18:15;;;;;;;5.88;3.85;;;;;;;22.67;38.89;96329.06;5047924;28;20060;-47
2023/03/21 11:20:49;;;;;;;6.88;4.45;;;;;;;22.77;38.21;96330.41;5046258;28;20068;-51
2023/03/21 11:23:18;;;;;;;8.63;4.30;;;;;;;22.83;38.07;96322.28;5050979;28;20079;-51
2023/03/21 11:25:49;;;;;;;9.02;4.32;;;;;;;22.77;38.20;96316.97;5051265;28;20084;-49
2023/03/21 11:28:20;;;;;;;7.13;3.92;;;;;;;22.66;37.81;96326.63;5045665;28;20065;-47
2023/03/21 11:30:50;;;;;;;8.55;4.30;;;;;;;23.08;37.52;96318.69;5050316;28;20077;-49
2023/03/21 11:33:20;;;;;;;9.63;4.45;;;;;;;23.21;37.30;96313.97;5051427;28;20084;-48
2023/03/21 11:36:00;;;;;;;9.65;4.88;;;;;;;23.15;36.67;96309.47;5050868;28;20087;-49
2023/03/21 11:38:30;;;;;;;;;;;;;;;23.51;36.60;96309.63;5048887;28;20107;-50
2023/03/21 11:41:00;;;;;;;7.47;4.63;;;;;;;23.49;36.71;96304.47;5050823;28;19972;-48
2023/03/21 11:43:31;;;;;;;8.48;4.60;;;;;;;23.49;36.67;96301.75;5050885;28;20083;-46
2023/03/21 11:46:05;;;;;;;10.38;4.40;;;;;;;23.69;36.85;96296.94;5050816;28;20071;-50
2023/03/21 11:48:39;;;;;;;7.20;4.30;;;;;;;23.91;36.13;96293.66;5047329;28;20460;-52
2023/03/21 11:51:18;;;;;;;9.45;4.78;;;;;;;23.72;36.81;96289.44;5043766;28;20071;-48
2023/03/21 11:53:50;;;;;;;6.68;4.90;;;;;;;23.77;36.30;96285.00;5049563;28;20194;-47
2023/03/21 11:56:23;;;;;;;7.03;5.00;;;;;;;23.91;35.65;96281.03;5050374;28;20316;-48
2023/03/21 11:59:02;;;;;;;8.15;4.72;;;;;;;23.88;35.48;96280.66;5050972;28;20290;-53